sensor_id;sensor_type;location;lat;lon;timestamp;pressure;altitude;pressure_sealevel;temperature;humidity
22872;BME280;11603;44.910;8.630;2022-07-17T00:00:37;100634.16;;;29.28;100.00
22872;BME280;11603;44.910;8.630;2022-07-17T00:03:05;100629.28;;;29.24;100.00
22872;BME280;11603;44.910;8.630;2022-07-17T00:05:31;100636.28;;;29.33;100.00
22872;BME280;11603;44.910;8.630;2022-07-17T00:07:56;100630.56;;;29.28;100.00
22872;BME280;11603;44.910;8.630;2022-07-17T00:10:22;100632.31;;;29.09;100.00
22872;BME280;11603;44.910;8.630;2022-07-17T00:12:48;100633.97;;;29.17;100.00
22872;BME280;11603;44.910;8.630;2022-07-17T00:15:13;100627.38;;;29.31;100.00
22872;BME280;11603;44.910;8.630;2022-07-17T00:17:39;100633.53;;;29.39;100.00
22872;BME280;11603;44.910;8.630;2022-07-17T00:20:06;100630.97;;;29.44;100.00
22872;BME280;11603;44.910;8.630;2022-07-17T00:22:33;100632.28;;;29.35;100.00
22872;BME280;11603;44.910;8.630;2022-07-17T00:24:58;100628.03;;;29.33;100.00
22872;BME280;11603;44.910;8.630;2022-07-17T00:27:24;100626.53;;;29.37;100.00
22872;BME280;11603;44.910;8.630;2022-07-17T00:29:50;100633.31;;;29.28;100.00
22872;BME280;11603;44.910;8.630;2022-07-17T00:32:15;100626.78;;;29.09;100.00
22872;BME280;11603;44.910;8.630;2022-07-17T00:34:41;100622.56;;;29.06;100.00
22872;BME280;11603;44.910;8.630;2022-07-17T00:37:07;100632.31;;;29.09;100.00
22872;BME280;11603;44.910;8.630;2022-07-17T00:39:33;100631.66;;;29.20;100.00
22872;BME280;11603;44.910;8.630;2022-07-17T00:41:58;100622.72;;;29.38;100.00
22872;BME280;11603;44.910;8.630;2022-07-17T00:44:26;100625.84;;;29.48;100.00
22872;BME280;11603;44.910;8.630;2022-07-17T00:46:53;100626.47;;;29.57;100.00
22872;BME280;11603;44.910;8.630;2022-07-17T00:49:18;100633.63;;;29.64;100.00
22872;BME280;11603;44.910;8.630;2022-07-17T00:51:44;100634.28;;;29.66;100.00
22872;BME280;11603;44.910;8.630;2022-07-17T00:54:11;100636.78;;;29.68;100.00
22872;BME280;11603;44.910;8.630;2022-07-17T00:56:40;100645.63;;;29.32;100.00
22872;BME280;11603;44.910;8.630;2022-07-17T00:59:07;100642.50;;;28.82;100.00
22872;BME280;11603;44.910;8.630;2022-07-17T01:01:33;100643.94;;;28.65;100.00
22872;BME280;11603;44.910;8.630;2022-07-17T01:03:58;100638.25;;;28.80;100.00
22872;BME280;11603;44.910;8.630;2022-07-17T01:06:24;100640.16;;;28.66;100.00
22872;BME280;11603;44.910;8.630;2022-07-17T01:08:50;100650.09;;;28.54;100.00
22872;BME280;11603;44.910;8.630;2022-07-17T01:11:15;100651.78;;;28.55;100.00
22872;BME280;11603;44.910;8.630;2022-07-17T01:13:42;100652.59;;;28.42;100.00
22872;BME280;11603;44.910;8.630;2022-07-17T01:16:08;100655.59;;;28.41;100.00
22872;BME280;11603;44.910;8.630;2022-07-17T01:18:34;100657.28;;;28.42;100.00
22872;BME280;11603;44.910;8.630;2022-07-17T01:21:04;100657.28;;;28.35;100.00
22872;BME280;11603;44.910;8.630;2022-07-17T01:23:30;100666.78;;;28.33;100.00
22872;BME280;11603;44.910;8.630;2022-07-17T01:25:55;100676.94;;;28.19;100.00
22872;BME280;11603;44.910;8.630;2022-07-17T01:28:21;100687.13;;;27.77;100.00
22872;BME280;11603;44.910;8.630;2022-07-17T01:30:48;100685.19;;;27.44;100.00
22872;BME280;11603;44.910;8.630;2022-07-17T01:33:15;100684.66;;;27.20;100.00
22872;BME280;11603;44.910;8.630;2022-07-17T01:35:40;100674.09;;;27.24;100.00
22872;BME280;11603;44.910;8.630;2022-07-17T01:38:06;100680.88;;;27.56;100.00
22872;BME280;11603;44.910;8.630;2022-07-17T01:40:31;100683.44;;;27.57;100.00
22872;BME280;11603;44.910;8.630;2022-07-17T01:42:57;100693.00;;;27.40;100.00
22872;BME280;11603;44.910;8.630;2022-07-17T01:45:22;100691.38;;;27.18;100.00
22872;BME280;11603;44.910;8.630;2022-07-17T01:47:48;100691.06;;;27.06;100.00
22872;BME280;11603;44.910;8.630;2022-07-17T01:50:14;100703.94;;;26.99;100.00
22872;BME280;11603;44.910;8.630;2022-07-17T01:52:41;100706.78;;;26.91;100.00
22872;BME280;11603;44.910;8.630;2022-07-17T01:55:09;100708.91;;;26.89;100.00
22872;BME280;11603;44.910;8.630;2022-07-17T01:57:36;100709.22;;;27.01;100.00
22872;BME280;11603;44.910;8.630;2022-07-17T02:00:05;100699.31;;;27.06;100.00
22872;BME280;11603;44.910;8.630;2022-07-17T02:02:33;100710.91;;;27.02;100.00
22872;BME280;11603;44.910;8.630;2022-07-17T02:04:58;100708.38;;;27.00;100.00
22872;BME280;11603;44.910;8.630;2022-07-17T02:07:24;100721.41;;;27.19;100.00
22872;BME280;11603;44.910;8.630;2022-07-17T02:09:50;100701.44;;;27.38;100.00
22872;BME280;11603;44.910;8.630;2022-07-17T02:12:15;100707.53;;;27.62;100.00
22872;BME280;11603;44.910;8.630;2022-07-17T02:14:41;100702.75;;;27.77;100.00
22872;BME280;11603;44.910;8.630;2022-07-17T02:17:06;100707.69;;;27.88;100.00
22872;BME280;11603;44.910;8.630;2022-07-17T02:19:32;100710.50;;;28.08;100.00
22872;BME280;11603;44.910;8.630;2022-07-17T02:21:57;100714.38;;;28.27;100.00
22872;BME280;11603;44.910;8.630;2022-07-17T02:24:23;100713.66;;;28.11;100.00
22872;BME280;11603;44.910;8.630;2022-07-17T02:26:48;100711.75;;;27.99;100.00
22872;BME280;11603;44.910;8.630;2022-07-17T02:29:14;100707.69;;;27.88;100.00
22872;BME280;11603;44.910;8.630;2022-07-17T02:31:39;100712.72;;;27.78;100.00
22872;BME280;11603;44.910;8.630;2022-07-17T02:34:05;100715.00;;;27.74;100.00
22872;BME280;11603;44.910;8.630;2022-07-17T02:36:30;100709.50;;;27.68;100.00
22872;BME280;11603;44.910;8.630;2022-07-17T02:38:56;100719.59;;;27.61;100.00
22872;BME280;11603;44.910;8.630;2022-07-17T02:41:22;100726.09;;;27.53;100.00
22872;BME280;11603;44.910;8.630;2022-07-17T02:43:47;100718.69;;;27.54;100.00
22872;BME280;11603;44.910;8.630;2022-07-17T02:46:13;100719.41;;;27.62;100.00
22872;BME280;11603;44.910;8.630;2022-07-17T02:48:41;100721.19;;;27.83;100.00
22872;BME280;11603;44.910;8.630;2022-07-17T02:51:07;100727.13;;;27.87;100.00
22872;BME280;11603;44.910;8.630;2022-07-17T02:53:33;100729.63;;;27.81;100.00
22872;BME280;11603;44.910;8.630;2022-07-17T02:55:59;100730.69;;;27.80;100.00
22872;BME280;11603;44.910;8.630;2022-07-17T02:58:24;100726.53;;;27.98;100.00
22872;BME280;11603;44.910;8.630;2022-07-17T03:00:50;100730.38;;;28.03;100.00
22872;BME280;11603;44.910;8.630;2022-07-17T03:03:16;100724.06;;;28.09;100.00
22872;BME280;11603;44.910;8.630;2022-07-17T03:05:43;100723.97;;;27.96;100.00
22872;BME280;11603;44.910;8.630;2022-07-17T03:08:09;100738.00;;;28.08;100.00
22872;BME280;11603;44.910;8.630;2022-07-17T03:10:34;100733.03;;;28.25;100.00
22872;BME280;11603;44.910;8.630;2022-07-17T03:12:59;100738.56;;;28.38;100.00
22872;BME280;11603;44.910;8.630;2022-07-17T03:15:25;100736.19;;;28.28;100.00
22872;BME280;11603;44.910;8.630;2022-07-17T03:17:51;100737.88;;;28.22;100.00
22872;BME280;11603;44.910;8.630;2022-07-17T03:20:16;100729.22;;;28.26;100.00
22872;BME280;11603;44.910;8.630;2022-07-17T03:22:42;100738.72;;;28.23;100.00
22872;BME280;11603;44.910;8.630;2022-07-17T03:25:08;100735.34;;;28.28;100.00
22872;BME280;11603;44.910;8.630;2022-07-17T03:27:33;100737.56;;;28.11;100.00
22872;BME280;11603;44.910;8.630;2022-07-17T03:30:02;100733.66;;;28.20;100.00
22872;BME280;11603;44.910;8.630;2022-07-17T03:32:33;100744.56;;;28.07;100.00
22872;BME280;11603;44.910;8.630;2022-07-17T03:35:01;100753.03;;;28.05;100.00
22872;BME280;11603;44.910;8.630;2022-07-17T03:37:28;100746.69;;;28.11;100.00
22872;BME280;11603;44.910;8.630;2022-07-17T03:39:57;100753.13;;;28.25;100.00
22872;BME280;11603;44.910;8.630;2022-07-17T03:42:26;100751.66;;;28.29;100.00
22872;BME280;11603;44.910;8.630;2022-07-17T03:44:52;100749.09;;;28.28;100.00
22872;BME280;11603;44.910;8.630;2022-07-17T03:47:17;100750.63;;;28.37;100.00
22872;BME280;11603;44.910;8.630;2022-07-17T03:49:45;100760.56;;;28.38;100.00
22872;BME280;11603;44.910;8.630;2022-07-17T03:52:12;100753.09;;;28.18;100.00
22872;BME280;11603;44.910;8.630;2022-07-17T03:54:39;100756.84;;;28.11;100.00
22872;BME280;11603;44.910;8.630;2022-07-17T03:57:05;100765.50;;;28.08;100.00
22872;BME280;11603;44.910;8.630;2022-07-17T03:59:32;100766.75;;;27.99;100.00
22872;BME280;11603;44.910;8.630;2022-07-17T04:01:59;100769.69;;;27.97;100.00
22872;BME280;11603;44.910;8.630;2022-07-17T04:04:24;100770.47;;;27.85;100.00
22872;BME280;11603;44.910;8.630;2022-07-17T04:06:50;100770.84;;;27.47;100.00
22872;BME280;11603;44.910;8.630;2022-07-17T04:09:17;100776.59;;;27.24;100.00
22872;BME280;11603;44.910;8.630;2022-07-17T04:11:43;100774.81;;;27.17;100.00
22872;BME280;11603;44.910;8.630;2022-07-17T04:14:08;100780.03;;;27.33;100.00
22872;BME280;11603;44.910;8.630;2022-07-17T04:16:34;100783.84;;;27.60;100.00
22872;BME280;11603;44.910;8.630;2022-07-17T04:19:04;100782.50;;;27.77;100.00
22872;BME280;11603;44.910;8.630;2022-07-17T04:21:29;100785.78;;;28.00;100.00
22872;BME280;11603;44.910;8.630;2022-07-17T04:23:55;100794.66;;;28.37;100.00
22872;BME280;11603;44.910;8.630;2022-07-17T04:26:20;100795.44;;;28.78;100.00
22872;BME280;11603;44.910;8.630;2022-07-17T04:28:45;100793.81;;;29.56;100.00
22872;BME280;11603;44.910;8.630;2022-07-17T04:31:11;100805.81;;;30.08;100.00
22872;BME280;11603;44.910;8.630;2022-07-17T04:33:37;100802.00;;;30.02;100.00
22872;BME280;11603;44.910;8.630;2022-07-17T04:36:03;100794.56;;;30.03;100.00
22872;BME280;11603;44.910;8.630;2022-07-17T04:38:35;100795.53;;;30.28;100.00
22872;BME280;11603;44.910;8.630;2022-07-17T04:41:02;100803.94;;;31.22;100.00
22872;BME280;11603;44.910;8.630;2022-07-17T04:43:28;100813.03;;;31.97;95.57
22872;BME280;11603;44.910;8.630;2022-07-17T04:45:53;100803.47;;;32.48;91.70
22872;BME280;11603;44.910;8.630;2022-07-17T04:48:19;100806.81;;;32.98;88.84
22872;BME280;11603;44.910;8.630;2022-07-17T04:50:44;100816.94;;;33.22;86.24
22872;BME280;11603;44.910;8.630;2022-07-17T04:53:10;100818.88;;;33.33;85.76
22872;BME280;11603;44.910;8.630;2022-07-17T04:55:35;100821.78;;;33.50;85.10
22872;BME280;11603;44.910;8.630;2022-07-17T04:58:02;100825.94;;;33.71;82.69
22872;BME280;11603;44.910;8.630;2022-07-17T05:00:27;100827.16;;;33.86;82.05
22872;BME280;11603;44.910;8.630;2022-07-17T05:02:53;100817.44;;;34.12;80.05
22872;BME280;11603;44.910;8.630;2022-07-17T05:05:18;100822.44;;;34.50;78.72
22872;BME280;11603;44.910;8.630;2022-07-17T05:07:44;100820.34;;;34.69;77.06
22872;BME280;11603;44.910;8.630;2022-07-17T05:10:09;100829.31;;;34.88;76.92
22872;BME280;11603;44.910;8.630;2022-07-17T05:12:36;100832.19;;;35.21;74.36
22872;BME280;11603;44.910;8.630;2022-07-17T05:15:02;100840.81;;;35.53;72.66
22872;BME280;11603;44.910;8.630;2022-07-17T05:17:27;100845.00;;;35.89;71.14
22872;BME280;11603;44.910;8.630;2022-07-17T05:19:53;100839.66;;;36.42;67.93
22872;BME280;11603;44.910;8.630;2022-07-17T05:22:18;100848.84;;;36.65;66.72
22872;BME280;11603;44.910;8.630;2022-07-17T05:24:44;100844.78;;;36.99;64.88
22872;BME280;11603;44.910;8.630;2022-07-17T05:27:09;100847.72;;;37.41;63.38
22872;BME280;11603;44.910;8.630;2022-07-17T05:29:35;100849.50;;;37.52;62.39
22872;BME280;11603;44.910;8.630;2022-07-17T05:32:01;100848.13;;;37.55;62.47
22872;BME280;11603;44.910;8.630;2022-07-17T05:34:26;100850.09;;;37.54;61.68
22872;BME280;11603;44.910;8.630;2022-07-17T05:36:52;100861.06;;;37.66;61.30
22872;BME280;11603;44.910;8.630;2022-07-17T05:39:17;100859.81;;;37.52;61.75
22872;BME280;11603;44.910;8.630;2022-07-17T05:41:43;100865.41;;;36.98;63.07
22872;BME280;11603;44.910;8.630;2022-07-17T05:44:08;100866.66;;;36.85;63.79
22872;BME280;11603;44.910;8.630;2022-07-17T05:46:34;100863.03;;;36.85;63.92
22872;BME280;11603;44.910;8.630;2022-07-17T05:48:59;100875.44;;;36.50;64.98
22872;BME280;11603;44.910;8.630;2022-07-17T05:51:25;100874.25;;;36.08;66.55
22872;BME280;11603;44.910;8.630;2022-07-17T05:53:50;100876.31;;;35.62;69.85
22872;BME280;11603;44.910;8.630;2022-07-17T05:56:16;100877.31;;;35.56;70.31
22872;BME280;11603;44.910;8.630;2022-07-17T05:58:41;100878.41;;;35.22;71.47
22872;BME280;11603;44.910;8.630;2022-07-17T06:01:07;100885.56;;;34.78;74.85
22872;BME280;11603;44.910;8.630;2022-07-17T06:03:32;100878.59;;;34.75;75.41
22872;BME280;11603;44.910;8.630;2022-07-17T06:05:58;100877.03;;;34.56;77.30
22872;BME280;11603;44.910;8.630;2022-07-17T06:08:23;100883.34;;;34.28;78.94
22872;BME280;11603;44.910;8.630;2022-07-17T06:10:49;100886.66;;;34.02;80.21
22872;BME280;11603;44.910;8.630;2022-07-17T06:13:14;100883.34;;;33.82;81.39
22872;BME280;11603;44.910;8.630;2022-07-17T06:15:39;100885.97;;;33.53;82.90
22872;BME280;11603;44.910;8.630;2022-07-17T06:18:05;100885.69;;;33.13;85.68
22872;BME280;11603;44.910;8.630;2022-07-17T06:20:31;100891.72;;;33.10;87.01
22872;BME280;11603;44.910;8.630;2022-07-17T06:22:57;100894.94;;;32.77;88.93
22872;BME280;11603;44.910;8.630;2022-07-17T06:25:23;100899.28;;;32.55;92.75
22872;BME280;11603;44.910;8.630;2022-07-17T06:27:48;100892.16;;;32.66;92.07
22872;BME280;11603;44.910;8.630;2022-07-17T06:30:15;100896.28;;;32.75;91.82
22872;BME280;11603;44.910;8.630;2022-07-17T06:32:41;100895.28;;;32.69;91.54
22872;BME280;11603;44.910;8.630;2022-07-17T06:35:08;100897.31;;;32.56;93.03
22872;BME280;11603;44.910;8.630;2022-07-17T06:37:34;100910.03;;;32.27;95.08
22872;BME280;11603;44.910;8.630;2022-07-17T06:39:59;100909.81;;;32.04;96.26
22872;BME280;11603;44.910;8.630;2022-07-17T06:42:25;100904.88;;;32.12;96.54
22872;BME280;11603;44.910;8.630;2022-07-17T06:44:50;100907.84;;;32.11;96.98
22872;BME280;11603;44.910;8.630;2022-07-17T06:47:16;100912.28;;;32.18;96.14
22872;BME280;11603;44.910;8.630;2022-07-17T06:49:41;100910.22;;;31.82;98.75
22872;BME280;11603;44.910;8.630;2022-07-17T06:52:08;100911.16;;;31.45;100.00
22872;BME280;11603;44.910;8.630;2022-07-17T06:54:34;100916.03;;;31.49;100.00
22872;BME280;11603;44.910;8.630;2022-07-17T06:56:59;100922.63;;;31.48;100.00
22872;BME280;11603;44.910;8.630;2022-07-17T06:59:24;100913.84;;;31.51;100.00
22872;BME280;11603;44.910;8.630;2022-07-17T07:01:50;100917.47;;;31.21;100.00
22872;BME280;11603;44.910;8.630;2022-07-17T07:04:15;100922.22;;;31.13;100.00
22872;BME280;11603;44.910;8.630;2022-07-17T07:06:41;100922.38;;;30.74;100.00
22872;BME280;11603;44.910;8.630;2022-07-17T07:09:07;100928.66;;;30.94;100.00
22872;BME280;11603;44.910;8.630;2022-07-17T07:11:32;100923.00;;;31.21;100.00
22872;BME280;11603;44.910;8.630;2022-07-17T07:13:58;100923.72;;;31.41;100.00
22872;BME280;11603;44.910;8.630;2022-07-17T07:16:23;100925.72;;;31.34;100.00
22872;BME280;11603;44.910;8.630;2022-07-17T07:18:49;100930.06;;;31.17;100.00
22872;BME280;11603;44.910;8.630;2022-07-17T07:21:14;100934.25;;;31.26;100.00
22872;BME280;11603;44.910;8.630;2022-07-17T07:23:40;100931.56;;;31.12;100.00
22872;BME280;11603;44.910;8.630;2022-07-17T07:26:06;100923.66;;;31.23;100.00
22872;BME280;11603;44.910;8.630;2022-07-17T07:28:31;100919.94;;;30.97;100.00
22872;BME280;11603;44.910;8.630;2022-07-17T07:30:57;100928.03;;;30.92;100.00
22872;BME280;11603;44.910;8.630;2022-07-17T07:33:22;100930.16;;;31.03;100.00
22872;BME280;11603;44.910;8.630;2022-07-17T07:35:48;100937.88;;;30.82;100.00
22872;BME280;11603;44.910;8.630;2022-07-17T07:38:13;100932.25;;;30.30;100.00
22872;BME280;11603;44.910;8.630;2022-07-17T07:40:39;100932.22;;;30.44;100.00
22872;BME280;11603;44.910;8.630;2022-07-17T07:43:04;100940.13;;;30.20;100.00
22872;BME280;11603;44.910;8.630;2022-07-17T07:45:30;100936.53;;;30.20;100.00
22872;BME280;11603;44.910;8.630;2022-07-17T07:47:56;100935.00;;;30.30;100.00
22872;BME280;11603;44.910;8.630;2022-07-17T07:50:23;100934.84;;;30.19;100.00
22872;BME280;11603;44.910;8.630;2022-07-17T07:52:50;100943.06;;;30.52;100.00
22872;BME280;11603;44.910;8.630;2022-07-17T07:55:16;100944.97;;;30.45;100.00
22872;BME280;11603;44.910;8.630;2022-07-17T07:57:41;100946.50;;;30.21;100.00
22872;BME280;11603;44.910;8.630;2022-07-17T08:00:08;100950.34;;;30.20;100.00
22872;BME280;11603;44.910;8.630;2022-07-17T08:02:40;100946.69;;;30.39;100.00
22872;BME280;11603;44.910;8.630;2022-07-17T08:05:07;100950.91;;;30.42;100.00
22872;BME280;11603;44.910;8.630;2022-07-17T08:07:35;100951.34;;;30.52;100.00
22872;BME280;11603;44.910;8.630;2022-07-17T08:10:03;100945.97;;;30.70;100.00
22872;BME280;11603;44.910;8.630;2022-07-17T08:12:28;100945.59;;;30.66;100.00
22872;BME280;11603;44.910;8.630;2022-07-17T08:14:54;100955.53;;;30.67;100.00
22872;BME280;11603;44.910;8.630;2022-07-17T08:17:20;100952.94;;;30.86;100.00
22872;BME280;11603;44.910;8.630;2022-07-17T08:19:45;100949.50;;;30.90;100.00
22872;BME280;11603;44.910;8.630;2022-07-17T08:22:11;100947.25;;;30.67;100.00
22872;BME280;11603;44.910;8.630;2022-07-17T08:24:37;100954.47;;;30.75;100.00
22872;BME280;11603;44.910;8.630;2022-07-17T08:27:03;100958.47;;;30.86;100.00
22872;BME280;11603;44.910;8.630;2022-07-17T08:29:29;100965.78;;;30.60;100.00
22872;BME280;11603;44.910;8.630;2022-07-17T08:31:54;100955.72;;;30.72;100.00
22872;BME280;11603;44.910;8.630;2022-07-17T08:34:20;100965.06;;;30.78;100.00
22872;BME280;11603;44.910;8.630;2022-07-17T08:36:47;100963.50;;;31.02;100.00
22872;BME280;11603;44.910;8.630;2022-07-17T08:39:13;100971.97;;;31.13;98.18
22872;BME280;11603;44.910;8.630;2022-07-17T08:41:39;100974.50;;;31.15;97.96
22872;BME280;11603;44.910;8.630;2022-07-17T08:44:05;100985.19;;;31.05;97.29
22872;BME280;11603;44.910;8.630;2022-07-17T08:46:33;100977.13;;;31.03;95.96
22872;BME280;11603;44.910;8.630;2022-07-17T08:49:02;100975.22;;;30.91;95.79
22872;BME280;11603;44.910;8.630;2022-07-17T08:51:28;100974.19;;;30.79;94.77
22872;BME280;11603;44.910;8.630;2022-07-17T08:53:54;100971.88;;;30.82;90.34
22872;BME280;11603;44.910;8.630;2022-07-17T08:56:20;100978.78;;;31.11;93.46
22872;BME280;11603;44.910;8.630;2022-07-17T08:58:46;100981.56;;;31.42;91.94
22872;BME280;11603;44.910;8.630;2022-07-17T09:01:15;100983.19;;;31.56;90.58
22872;BME280;11603;44.910;8.630;2022-07-17T09:03:53;100988.97;;;31.55;82.51
22872;BME280;11603;44.910;8.630;2022-07-17T09:06:20;100978.41;;;31.39;83.78
22872;BME280;11603;44.910;8.630;2022-07-17T09:08:46;100976.41;;;31.52;74.67
22872;BME280;11603;44.910;8.630;2022-07-17T09:11:11;100984.19;;;31.69;81.09
22872;BME280;11603;44.910;8.630;2022-07-17T09:13:37;100980.03;;;31.84;76.41
22872;BME280;11603;44.910;8.630;2022-07-17T09:18:31;100981.03;;;32.21;72.83
22872;BME280;11603;44.910;8.630;2022-07-17T09:20:57;100969.03;;;32.27;72.24
22872;BME280;11603;44.910;8.630;2022-07-17T09:23:25;100970.66;;;32.35;73.71
22872;BME280;11603;44.910;8.630;2022-07-17T09:25:53;100969.56;;;32.36;70.89
22872;BME280;11603;44.910;8.630;2022-07-17T09:28:19;100972.88;;;32.26;71.82
22872;BME280;11603;44.910;8.630;2022-07-17T09:30:51;100976.19;;;32.35;72.79
22872;BME280;11603;44.910;8.630;2022-07-17T09:33:19;100976.50;;;32.45;69.40
22872;BME280;11603;44.910;8.630;2022-07-17T09:35:55;100973.41;;;32.35;68.04
22872;BME280;11603;44.910;8.630;2022-07-17T09:38:28;100982.50;;;32.24;67.79
22872;BME280;11603;44.910;8.630;2022-07-17T09:41:08;100970.09;;;32.26;66.49
22872;BME280;11603;44.910;8.630;2022-07-17T09:43:50;100980.69;;;32.54;67.10
22872;BME280;11603;44.910;8.630;2022-07-17T09:46:26;100979.13;;;32.65;67.01
22872;BME280;11603;44.910;8.630;2022-07-17T09:48:54;100978.56;;;32.74;66.75
22872;BME280;11603;44.910;8.630;2022-07-17T09:51:21;100976.72;;;32.87;67.49
22872;BME280;11603;44.910;8.630;2022-07-17T09:53:49;100971.47;;;32.78;65.57
22872;BME280;11603;44.910;8.630;2022-07-17T09:56:16;100971.38;;;32.49;64.69
22872;BME280;11603;44.910;8.630;2022-07-17T09:58:49;100973.56;;;32.65;66.37
22872;BME280;11603;44.910;8.630;2022-07-17T10:01:16;100968.56;;;32.73;66.12
22872;BME280;11603;44.910;8.630;2022-07-17T10:03:43;100970.06;;;32.51;67.24
22872;BME280;11603;44.910;8.630;2022-07-17T10:06:10;100971.59;;;32.47;68.92
22872;BME280;11603;44.910;8.630;2022-07-17T10:08:36;100976.53;;;32.63;67.42
22872;BME280;11603;44.910;8.630;2022-07-17T10:11:04;100980.16;;;32.82;67.67
22872;BME280;11603;44.910;8.630;2022-07-17T10:13:31;100971.56;;;32.90;68.04
22872;BME280;11603;44.910;8.630;2022-07-17T10:15:57;100979.38;;;32.93;69.23
22872;BME280;11603;44.910;8.630;2022-07-17T10:18:34;100982.75;;;33.13;69.14
22872;BME280;11603;44.910;8.630;2022-07-17T10:23:33;100980.78;;;33.02;71.17
22872;BME280;11603;44.910;8.630;2022-07-17T10:25:58;100980.44;;;33.10;71.05
22872;BME280;11603;44.910;8.630;2022-07-17T10:28:24;100980.38;;;32.99;70.99
22872;BME280;11603;44.910;8.630;2022-07-17T10:30:49;100977.31;;;33.07;70.94
22872;BME280;11603;44.910;8.630;2022-07-17T10:33:16;100970.84;;;33.13;71.30
22872;BME280;11603;44.910;8.630;2022-07-17T10:35:47;100968.81;;;33.20;70.66
22872;BME280;11603;44.910;8.630;2022-07-17T10:38:14;100969.38;;;33.29;70.24
22872;BME280;11603;44.910;8.630;2022-07-17T10:40:41;100975.56;;;33.42;69.78
22872;BME280;11603;44.910;8.630;2022-07-17T10:43:08;100963.00;;;33.40;69.49
22872;BME280;11603;44.910;8.630;2022-07-17T10:45:38;100970.72;;;33.38;69.85
22872;BME280;11603;44.910;8.630;2022-07-17T10:55:35;100965.34;;;33.54;69.06
22872;BME280;11603;44.910;8.630;2022-07-17T10:58:02;100970.63;;;33.56;69.22
22872;BME280;11603;44.910;8.630;2022-07-17T11:00:28;100964.16;;;33.62;68.80
22872;BME280;11603;44.910;8.630;2022-07-17T11:02:53;100971.84;;;33.90;67.30
22872;BME280;11603;44.910;8.630;2022-07-17T11:05:20;100973.25;;;34.22;65.18
22872;BME280;11603;44.910;8.630;2022-07-17T11:07:57;100961.88;;;34.35;65.86
22872;BME280;11603;44.910;8.630;2022-07-17T11:10:25;100962.66;;;34.13;65.89
22872;BME280;11603;44.910;8.630;2022-07-17T11:12:54;100958.34;;;34.05;65.73
22872;BME280;11603;44.910;8.630;2022-07-17T11:15:19;100962.19;;;34.04;66.29
22872;BME280;11603;44.910;8.630;2022-07-17T11:17:49;100963.06;;;34.16;65.06
22872;BME280;11603;44.910;8.630;2022-07-17T11:20:15;100966.22;;;34.20;64.41
22872;BME280;11603;44.910;8.630;2022-07-17T11:22:42;100955.09;;;34.43;64.54
22872;BME280;11603;44.910;8.630;2022-07-17T11:25:08;100960.78;;;34.25;64.53
22872;BME280;11603;44.910;8.630;2022-07-17T11:27:35;100951.94;;;34.39;61.53
22872;BME280;11603;44.910;8.630;2022-07-17T11:30:03;100953.41;;;34.54;63.78
22872;BME280;11603;44.910;8.630;2022-07-17T11:32:36;100959.19;;;34.40;63.58
22872;BME280;11603;44.910;8.630;2022-07-17T11:35:13;100953.06;;;34.27;63.29
22872;BME280;11603;44.910;8.630;2022-07-17T11:37:39;100947.00;;;34.30;62.12
22872;BME280;11603;44.910;8.630;2022-07-17T11:40:05;100946.16;;;34.29;63.65
22872;BME280;11603;44.910;8.630;2022-07-17T11:42:30;100949.66;;;34.25;63.83
22872;BME280;11603;44.910;8.630;2022-07-17T11:44:56;100941.22;;;34.20;63.80
22872;BME280;11603;44.910;8.630;2022-07-17T11:47:24;100940.13;;;34.32;62.73
22872;BME280;11603;44.910;8.630;2022-07-17T11:49:52;100940.72;;;34.11;62.60
22872;BME280;11603;44.910;8.630;2022-07-17T11:52:21;100931.94;;;34.26;63.21
22872;BME280;11603;44.910;8.630;2022-07-17T11:54:52;100927.22;;;34.38;61.45
22872;BME280;11603;44.910;8.630;2022-07-17T11:57:19;100925.41;;;34.43;62.39
22872;BME280;11603;44.910;8.630;2022-07-17T11:59:47;100922.75;;;34.37;62.02
22872;BME280;11603;44.910;8.630;2022-07-17T12:02:17;100925.63;;;34.42;62.23
22872;BME280;11603;44.910;8.630;2022-07-17T12:04:52;100926.94;;;34.51;61.14
22872;BME280;11603;44.910;8.630;2022-07-17T12:07:18;100919.91;;;34.60;60.47
22872;BME280;11603;44.910;8.630;2022-07-17T12:09:44;100911.84;;;34.47;61.24
22872;BME280;11603;44.910;8.630;2022-07-17T12:14:56;100915.25;;;34.49;60.60
22872;BME280;11603;44.910;8.630;2022-07-17T12:17:23;100917.38;;;34.70;59.56
22872;BME280;11603;44.910;8.630;2022-07-17T12:19:50;100913.22;;;34.84;59.40
22872;BME280;11603;44.910;8.630;2022-07-17T12:22:16;100911.13;;;34.92;59.30
22872;BME280;11603;44.910;8.630;2022-07-17T12:24:44;100917.28;;;34.94;59.57
22872;BME280;11603;44.910;8.630;2022-07-17T12:27:15;100900.66;;;35.10;57.86
22872;BME280;11603;44.910;8.630;2022-07-17T12:29:41;100902.97;;;34.85;59.46
22872;BME280;11603;44.910;8.630;2022-07-17T12:32:13;100905.31;;;34.53;60.37
22872;BME280;11603;44.910;8.630;2022-07-17T12:34:41;100911.44;;;34.67;59.76
22872;BME280;11603;44.910;8.630;2022-07-17T12:37:15;100911.56;;;34.72;57.25
22872;BME280;11603;44.910;8.630;2022-07-17T12:39:41;100901.19;;;34.56;59.48
22872;BME280;11603;44.910;8.630;2022-07-17T12:42:07;100909.41;;;34.51;59.69
22872;BME280;11603;44.910;8.630;2022-07-17T12:44:35;100901.34;;;34.49;59.33
22872;BME280;11603;44.910;8.630;2022-07-17T12:47:00;100906.25;;;34.70;58.85
22872;BME280;11603;44.910;8.630;2022-07-17T12:49:26;100897.13;;;34.86;58.34
22872;BME280;11603;44.910;8.630;2022-07-17T12:51:51;100895.50;;;35.02;56.17
22872;BME280;11603;44.910;8.630;2022-07-17T12:54:17;100896.75;;;35.23;57.34
22872;BME280;11603;44.910;8.630;2022-07-17T12:56:42;100894.06;;;35.28;56.32